createdAt,value
2023-01-08T00:02:26.355Z,78.21
2023-01-08T00:04:55.897Z,78.32
2023-01-08T00:07:25.470Z,78.32
2023-01-08T00:09:55.142Z,78.68
2023-01-08T00:12:24.727Z,78.55
2023-01-08T00:14:54.367Z,78.50
2023-01-08T00:17:26.562Z,78.70
2023-01-08T00:19:56.134Z,78.80
2023-01-08T00:22:25.709Z,78.81
2023-01-08T00:24:55.262Z,78.80
2023-01-08T00:27:24.865Z,78.92
2023-01-08T00:29:54.500Z,79.20
2023-01-08T00:32:26.867Z,79.25
2023-01-08T00:34:57.160Z,79.63
2023-01-08T00:37:26.847Z,79.70
2023-01-08T00:39:56.467Z,79.84
2023-01-08T00:42:26.106Z,79.95
2023-01-08T00:44:55.698Z,80.06
2023-01-08T00:47:27.879Z,80.21
2023-01-08T00:49:57.472Z,80.12
2023-01-08T00:52:27.031Z,80.16
2023-01-08T00:54:56.622Z,80.13
2023-01-08T00:57:26.298Z,80.24
2023-01-08T00:59:55.917Z,80.34
2023-01-08T01:02:28.079Z,80.28
2023-01-08T01:04:57.698Z,80.26
2023-01-08T01:07:27.326Z,80.24
2023-01-08T01:09:56.916Z,80.13
2023-01-08T01:12:26.516Z,80.40
2023-01-08T01:14:56.079Z,80.40
2023-01-08T01:17:28.393Z,80.46
2023-01-08T01:19:57.994Z,80.41
2023-01-08T01:22:27.637Z,80.33
2023-01-08T01:24:57.208Z,80.25
2023-01-08T01:27:27.782Z,80.18
2023-01-08T01:29:57.398Z,80.38
2023-01-08T01:32:29.597Z,80.28
2023-01-08T01:34:59.191Z,80.28
2023-01-08T01:37:28.839Z,80.32
2023-01-08T01:39:58.898Z,80.58
2023-01-08T01:42:44.348Z,80.59
2023-01-08T01:45:21.198Z,80.58
2023-01-08T01:47:57.620Z,80.73
2023-01-08T01:50:31.348Z,80.73
2023-01-08T01:53:04.876Z,80.79
2023-01-08T01:55:35.158Z,80.95
2023-01-08T01:58:09.261Z,80.79
2023-01-08T02:00:38.999Z,80.95
2023-01-08T02:03:12.175Z,80.75
2023-01-08T02:05:48.366Z,80.96
2023-01-08T02:08:23.184Z,81.26
2023-01-08T02:10:56.729Z,81.62
2023-01-08T02:13:30.120Z,81.96
2023-01-08T02:16:01.849Z,82.36
2023-01-08T02:18:37.860Z,82.61
2023-01-08T02:21:12.155Z,82.89
2023-01-08T02:23:47.445Z,83.17
2023-01-08T02:26:25.418Z,83.59
2023-01-08T02:29:00.489Z,83.87
2023-01-08T02:31:31.965Z,84.14
2023-01-08T02:34:02.191Z,84.52
2023-01-08T02:36:39.008Z,84.70
2023-01-08T02:39:27.019Z,85.02
2023-01-08T02:42:08.392Z,85.14
2023-01-08T02:44:45.254Z,85.32
2023-01-08T02:47:20.586Z,85.59
2023-01-08T02:49:50.715Z,85.79
2023-01-08T02:52:20.491Z,86.03
2023-01-08T02:54:51.127Z,86.58
2023-01-08T02:57:23.599Z,86.92
2023-01-08T02:59:53.763Z,87.21
2023-01-08T03:02:23.573Z,87.57
2023-01-08T03:04:58.030Z,87.86
2023-01-08T03:07:27.669Z,87.95
2023-01-08T03:09:57.920Z,88.28
2023-01-08T03:12:35.901Z,88.48
2023-01-08T03:15:10.562Z,88.54
2023-01-08T03:17:42.870Z,88.62
2023-01-08T03:20:15.238Z,88.74
2023-01-08T03:22:47.090Z,89.18
2023-01-08T03:25:17.717Z,89.15
2023-01-08T03:27:54.178Z,89.41
2023-01-08T03:30:24.903Z,89.46
2023-01-08T03:32:55.379Z,89.64
2023-01-08T03:35:26.729Z,89.52
2023-01-08T03:37:59.972Z,89.79
2023-01-08T03:40:32.694Z,90.06
2023-01-08T03:43:04.959Z,89.98
2023-01-08T03:45:35.164Z,90.14
2023-01-08T03:48:05.963Z,90.02
2023-01-08T03:50:35.759Z,90.09
2023-01-08T03:53:05.358Z,90.27
2023-01-08T03:55:34.953Z,90.36
2023-01-08T03:58:07.580Z,90.54
2023-01-08T04:00:37.364Z,90.70
2023-01-08T04:03:06.981Z,90.92
2023-01-08T04:05:36.545Z,91.07
2023-01-08T04:08:06.300Z,91.03
2023-01-08T04:10:35.918Z,91.33
2023-01-08T04:13:08.060Z,91.45
2023-01-08T04:15:37.767Z,91.38
2023-01-08T04:18:07.485Z,91.64
2023-01-08T04:20:37.069Z,91.71
2023-01-08T04:23:06.722Z,92.13
2023-01-08T04:25:36.406Z,92.10
2023-01-08T04:28:08.596Z,92.38
2023-01-08T04:30:38.283Z,92.38
2023-01-08T04:33:07.937Z,92.46
2023-01-08T04:35:37.713Z,92.79
2023-01-08T04:38:07.697Z,92.68
2023-01-08T04:40:37.829Z,93.02
2023-01-08T04:43:10.133Z,92.91
2023-01-08T04:45:39.854Z,92.94
2023-01-08T04:48:10.141Z,92.92
2023-01-08T04:50:39.892Z,92.92
2023-01-08T04:53:09.558Z,93.01
2023-01-08T04:55:39.868Z,92.94
2023-01-08T04:58:12.204Z,93.17
2023-01-08T05:00:42.386Z,93.36
2023-01-08T05:03:12.233Z,93.30
2023-01-08T05:05:42.630Z,93.22
2023-01-08T05:08:12.249Z,93.32
2023-01-08T05:10:41.868Z,93.21
2023-01-08T05:13:14.015Z,93.41
2023-01-08T05:15:43.811Z,93.16
2023-01-08T05:18:13.403Z,93.44
2023-01-08T05:20:42.979Z,93.38
2023-01-08T05:23:12.594Z,93.33
2023-01-08T05:25:42.198Z,93.20
2023-01-08T05:28:14.342Z,92.95
2023-01-08T05:30:43.975Z,93.04
2023-01-08T05:33:13.567Z,93.14
2023-01-08T05:35:43.204Z,93.00
2023-01-08T05:38:12.798Z,92.82
2023-01-08T05:40:42.387Z,92.88
2023-01-08T05:43:14.571Z,92.74
2023-01-08T05:45:44.154Z,92.62
2023-01-08T05:48:13.713Z,92.75
2023-01-08T05:50:43.902Z,92.54
2023-01-08T05:53:13.496Z,92.51
2023-01-08T05:55:43.095Z,92.70
2023-01-08T05:58:18.988Z,92.67
2023-01-08T06:00:48.899Z,92.90
2023-01-08T06:03:18.509Z,92.84
2023-01-08T06:05:48.096Z,92.70
2023-01-08T06:08:17.960Z,92.60
2023-01-08T06:10:47.579Z,92.64
2023-01-08T06:13:19.728Z,92.81
2023-01-08T06:15:49.366Z,92.85
2023-01-08T06:18:19.057Z,92.66
2023-01-08T06:20:48.829Z,92.52
2023-01-08T06:23:18.415Z,92.47
2023-01-08T06:25:48.116Z,92.29
2023-01-08T06:28:20.307Z,92.20
2023-01-08T06:30:49.956Z,92.14
2023-01-08T06:33:21.379Z,92.29
2023-01-08T06:35:51.326Z,91.95
2023-01-08T06:38:21.816Z,91.96
2023-01-08T06:40:51.427Z,91.66
2023-01-08T06:43:24.130Z,91.77
2023-01-08T06:45:58.418Z,91.43
2023-01-08T06:48:28.315Z,91.12
2023-01-08T06:50:57.922Z,91.09
2023-01-08T06:53:27.587Z,90.86
2023-01-08T06:55:58.912Z,90.66
2023-01-08T06:58:31.229Z,90.51
2023-01-08T07:01:01.158Z,90.42
2023-01-08T07:03:30.901Z,90.37
2023-01-08T07:06:00.571Z,90.32
2023-01-08T07:08:30.176Z,90.52
2023-01-08T07:10:59.794Z,90.43
2023-01-08T07:13:32.101Z,90.79
2023-01-08T07:16:01.762Z,90.81
2023-01-08T07:18:31.383Z,90.87
2023-01-08T07:21:00.954Z,91.20
2023-01-08T07:23:30.541Z,90.98
2023-01-08T07:26:03.189Z,91.07
2023-01-08T07:28:35.476Z,91.21
2023-01-08T07:31:09.027Z,90.99
2023-01-08T07:33:38.760Z,90.92
2023-01-08T07:36:09.634Z,90.92
2023-01-08T07:38:39.216Z,90.84
2023-01-08T07:41:08.803Z,90.57
2023-01-08T07:43:40.965Z,90.61
2023-01-08T07:46:10.643Z,90.36
2023-01-08T07:48:40.255Z,90.33
2023-01-08T07:51:11.505Z,90.31
2023-01-08T07:53:41.565Z,90.13
2023-01-08T07:56:12.229Z,89.90
2023-01-08T07:58:44.803Z,89.98
2023-01-08T08:01:14.918Z,90.06
2023-01-08T08:03:44.688Z,90.00
2023-01-08T08:06:14.311Z,89.88
2023-01-08T08:08:43.908Z,89.89
2023-01-08T08:11:13.609Z,89.95
2023-01-08T08:13:47.496Z,89.63
2023-01-08T08:16:17.201Z,89.79
2023-01-08T08:18:47.185Z,89.41
2023-01-08T08:21:16.821Z,89.41
2023-01-08T08:23:46.382Z,89.62
2023-01-08T08:26:15.960Z,89.49
2023-01-08T08:28:48.111Z,89.41
2023-01-08T08:31:17.786Z,89.12
2023-01-08T08:33:47.443Z,88.98
2023-01-08T08:36:17.019Z,88.86
2023-01-08T08:38:46.582Z,88.93
2023-01-08T08:41:16.212Z,88.78
2023-01-08T08:43:50.107Z,88.52
2023-01-08T08:46:19.814Z,88.25
2023-01-08T08:48:49.429Z,88.17
2023-01-08T08:51:19.042Z,88.15
2023-01-08T08:53:48.618Z,87.78
2023-01-08T08:56:18.362Z,87.87
2023-01-08T08:58:51.872Z,87.78
2023-01-08T09:01:21.544Z,87.94
2023-01-08T09:03:51.266Z,88.07
2023-01-08T09:06:20.885Z,88.15
2023-01-08T09:08:50.464Z,88.16
2023-01-08T09:11:20.051Z,88.19
2023-01-08T09:13:52.261Z,88.04
2023-01-08T09:16:21.867Z,87.99
2023-01-08T09:18:51.771Z,88.04
2023-01-08T09:21:21.358Z,87.96
2023-01-08T09:23:51.178Z,88.14
2023-01-08T09:26:20.756Z,88.03
2023-01-08T09:28:52.945Z,87.55
2023-01-08T09:31:22.864Z,87.29
2023-01-08T09:33:52.703Z,87.14
2023-01-08T09:36:22.565Z,87.05
2023-01-08T09:38:52.127Z,86.69
2023-01-08T09:41:24.504Z,86.45
2023-01-08T09:43:58.127Z,86.55
2023-01-08T09:46:30.011Z,86.48
2023-01-08T09:49:02.792Z,86.41
2023-01-08T09:51:36.617Z,86.04
2023-01-08T09:54:07.642Z,86.04
2023-01-08T09:56:37.868Z,86.52
2023-01-08T09:59:10.192Z,85.46
2023-01-08T10:01:41.175Z,83.72
2023-01-08T10:04:17.742Z,81.42
2023-01-08T10:06:53.689Z,79.71
2023-01-08T10:09:27.274Z,78.58
2023-01-08T10:11:58.721Z,77.00
2023-01-08T10:14:33.473Z,75.27
2023-01-08T10:17:11.387Z,75.34
2023-01-08T10:19:41.508Z,75.76
2023-01-08T10:22:16.455Z,75.78
2023-01-08T10:24:46.009Z,75.97
2023-01-08T10:27:16.974Z,76.13
2023-01-08T10:29:49.447Z,76.27
2023-01-08T10:32:20.367Z,76.54
2023-01-08T10:34:52.170Z,77.04
2023-01-08T10:37:30.430Z,77.26
2023-01-08T10:40:08.887Z,77.33
2023-01-08T10:42:39.346Z,76.94
2023-01-08T10:45:17.676Z,76.99
2023-01-08T10:47:49.357Z,77.24
2023-01-08T10:50:24.268Z,77.64
2023-01-08T10:52:58.169Z,77.85
2023-01-08T10:55:29.653Z,77.67
2023-01-08T10:58:00.683Z,77.75
2023-01-08T11:00:35.274Z,77.37
2023-01-08T11:03:06.506Z,77.08
2023-01-08T11:05:37.791Z,76.93
2023-01-08T11:08:09.949Z,76.90
2023-01-08T11:10:39.992Z,76.89
2023-01-08T11:13:10.985Z,76.71
2023-01-08T11:15:44.057Z,76.66
2023-01-08T11:18:19.993Z,76.63
2023-01-08T11:20:50.578Z,76.52
2023-01-08T11:23:22.717Z,76.60
2023-01-08T11:25:57.322Z,76.52
2023-01-08T11:28:33.325Z,76.17
2023-01-08T11:31:16.329Z,76.08
2023-01-08T11:33:47.717Z,75.66
2023-01-08T11:36:24.868Z,75.29
2023-01-08T11:38:54.460Z,75.25
2023-01-08T11:41:33.287Z,74.97
2023-01-08T11:44:17.468Z,74.18
2023-01-08T11:46:55.887Z,74.39
2023-01-08T11:49:37.828Z,74.03
2023-01-08T11:52:18.251Z,74.17
2023-01-08T11:55:05.221Z,73.85
2023-01-08T11:57:43.813Z,73.66
2023-01-08T12:00:24.427Z,73.21
2023-01-08T12:02:58.294Z,72.99
2023-01-08T12:05:31.295Z,73.16
2023-01-08T12:08:06.968Z,72.99
2023-01-08T12:11:02.257Z,73.10
2023-01-08T12:13:42.642Z,73.26
2023-01-08T12:16:22.053Z,73.36
2023-01-08T12:19:05.118Z,73.31
2023-01-08T12:21:35.972Z,73.73
2023-01-08T12:24:22.637Z,73.23
2023-01-08T12:27:01.233Z,73.38
2023-01-08T12:29:48.221Z,73.46
2023-01-08T12:32:32.106Z,73.36
2023-01-08T12:35:11.581Z,72.86
2023-01-08T12:37:45.458Z,72.82
2023-01-08T12:40:18.606Z,72.71
2023-01-08T12:42:59.978Z,72.67
2023-01-08T12:45:32.852Z,72.87
2023-01-08T12:48:07.611Z,73.01
2023-01-08T12:50:46.338Z,73.04
2023-01-08T12:53:22.891Z,73.10
2023-01-08T12:55:58.239Z,73.12
2023-01-08T12:58:33.148Z,73.21
2023-01-08T13:01:11.904Z,73.02
2023-01-08T13:03:41.849Z,72.99
2023-01-08T13:06:16.270Z,72.84
2023-01-08T13:08:49.123Z,72.74
2023-01-08T13:11:28.011Z,73.04
2023-01-08T13:14:08.698Z,73.13
2023-01-08T13:16:41.009Z,73.14
2023-01-08T13:19:26.079Z,73.54
2023-01-08T13:21:59.911Z,73.52
2023-01-08T13:24:34.380Z,73.79
2023-01-08T13:27:23.325Z,74.03
2023-01-08T13:29:54.294Z,74.08
2023-01-08T13:32:40.234Z,74.41
2023-01-08T13:35:23.924Z,74.50
2023-01-08T13:38:08.946Z,74.47
2023-01-08T13:40:40.027Z,74.35
2023-01-08T13:43:15.518Z,74.49
2023-01-08T13:45:45.772Z,74.46
2023-01-08T13:48:24.371Z,74.32
2023-01-08T13:50:54.268Z,74.19
2023-01-08T13:53:26.934Z,73.90
2023-01-08T13:55:59.618Z,73.55
2023-01-08T13:58:31.632Z,73.51
2023-01-08T14:01:02.803Z,73.26
2023-01-08T14:03:35.792Z,72.86
2023-01-08T14:06:10.388Z,72.38
2023-01-08T14:08:52.607Z,71.81
2023-01-08T14:11:24.198Z,71.52
2023-01-08T14:13:54.073Z,71.31
2023-01-08T14:16:24.102Z,70.79
2023-01-08T14:18:54.066Z,70.66
2023-01-08T14:21:24.824Z,70.28
2023-01-08T14:23:57.126Z,70.29
2023-01-08T14:26:32.075Z,70.38
2023-01-08T14:29:02.334Z,70.31
2023-01-08T14:31:32.483Z,70.24
2023-01-08T14:34:03.008Z,70.14
2023-01-08T14:36:32.619Z,69.98
2023-01-08T14:39:04.785Z,69.93
2023-01-08T14:41:50.218Z,70.25
2023-01-08T14:44:25.981Z,70.61
2023-01-08T14:46:58.927Z,71.09
2023-01-08T14:49:31.222Z,71.28
2023-01-08T14:52:02.344Z,71.38
2023-01-08T14:54:36.010Z,71.47
2023-01-08T14:57:06.122Z,71.57
2023-01-08T14:59:37.852Z,71.57
2023-01-08T15:02:10.420Z,71.83
2023-01-08T15:04:40.098Z,71.79
2023-01-08T15:07:11.796Z,71.93
2023-01-08T15:09:43.983Z,71.97
2023-01-08T15:12:27.058Z,72.28
2023-01-08T15:14:58.099Z,72.25
2023-01-08T15:17:31.381Z,72.58
2023-01-08T15:20:01.998Z,72.62
2023-01-08T15:22:33.366Z,72.56
2023-01-08T15:25:07.673Z,72.77
2023-01-08T15:27:37.794Z,72.75
2023-01-08T15:30:10.037Z,72.98
2023-01-08T15:32:40.482Z,73.03
2023-01-08T15:35:17.094Z,73.28
2023-01-08T15:37:46.729Z,73.22
2023-01-08T15:40:18.958Z,73.20
2023-01-08T15:43:01.039Z,72.94
2023-01-08T15:45:32.721Z,73.05
2023-01-08T15:48:02.790Z,73.28
2023-01-08T15:50:36.572Z,73.53
2023-01-08T15:53:08.046Z,73.73
2023-01-08T15:55:43.445Z,73.48
2023-01-08T15:58:14.370Z,73.12
2023-01-08T16:00:45.024Z,73.14
2023-01-08T16:03:15.164Z,72.76
2023-01-08T16:05:44.977Z,72.73
2023-01-08T16:08:14.793Z,72.01
2023-01-08T16:10:46.935Z,72.35
2023-01-08T16:13:16.535Z,72.10
2023-01-08T16:15:46.116Z,72.13
2023-01-08T16:18:15.691Z,72.20
2023-01-08T16:20:45.277Z,72.37
2023-01-08T16:23:14.879Z,72.68
2023-01-08T16:25:47.044Z,73.02
2023-01-08T16:28:16.650Z,73.14
2023-01-08T16:30:46.220Z,73.40
2023-01-08T16:33:15.815Z,73.52
2023-01-08T16:35:45.405Z,73.79
2023-01-08T16:38:15.752Z,73.88
2023-01-08T16:40:47.987Z,73.84
2023-01-08T16:43:17.727Z,74.04
2023-01-08T16:45:48.905Z,74.36
2023-01-08T16:48:18.719Z,74.36
2023-01-08T16:50:48.508Z,74.67
2023-01-08T16:53:19.354Z,74.88
2023-01-08T16:55:51.478Z,74.71
2023-01-08T16:58:21.307Z,74.88
2023-01-08T17:00:51.029Z,74.51
2023-01-08T17:03:20.792Z,74.33
2023-01-08T17:05:50.557Z,74.11
2023-01-08T17:08:20.684Z,74.29
2023-01-08T17:10:52.838Z,74.22
2023-01-08T17:13:22.439Z,74.27
2023-01-08T17:15:53.183Z,74.37
2023-01-08T17:18:22.901Z,74.76
2023-01-08T17:20:55.933Z,75.09
2023-01-08T17:23:28.705Z,75.67
2023-01-08T17:26:04.159Z,76.11
2023-01-08T17:28:35.082Z,76.89
2023-01-08T17:31:05.823Z,77.04
2023-01-08T17:33:37.729Z,77.46
2023-01-08T17:36:13.433Z,77.64
2023-01-08T17:38:43.251Z,77.81
2023-01-08T17:41:36.898Z,78.00
2023-01-08T17:44:07.356Z,78.26
2023-01-08T17:46:38.048Z,78.21
2023-01-08T17:49:08.841Z,78.35
2023-01-08T17:51:38.789Z,78.72
2023-01-08T17:54:08.719Z,79.16
2023-01-08T17:56:41.174Z,79.29
2023-01-08T17:59:10.911Z,79.38
2023-01-08T18:01:40.639Z,79.61
2023-01-08T18:04:10.265Z,79.81
2023-01-08T18:06:39.892Z,79.54
2023-01-08T18:09:09.979Z,79.55
2023-01-08T18:11:42.361Z,79.26
2023-01-08T18:14:13.529Z,79.01
2023-01-08T18:16:45.563Z,79.17
2023-01-08T18:19:16.794Z,78.88
2023-01-08T18:21:46.522Z,78.66
2023-01-08T18:24:16.479Z,79.14
2023-01-08T18:26:48.799Z,79.14
2023-01-08T18:29:18.475Z,78.92
2023-01-08T18:31:48.093Z,79.18
2023-01-08T18:34:17.682Z,79.03
2023-01-08T18:36:48.333Z,79.41
2023-01-08T18:39:18.020Z,79.33
2023-01-08T18:42:02.663Z,79.52
2023-01-08T18:44:32.641Z,79.44
2023-01-08T18:47:02.237Z,79.36
2023-01-08T18:49:31.808Z,79.06
2023-01-08T18:52:01.376Z,79.27
2023-01-08T18:54:30.933Z,79.28
2023-01-08T18:57:03.229Z,78.99
2023-01-08T18:59:32.804Z,78.91
2023-01-08T19:02:02.579Z,78.73
2023-01-08T19:04:32.390Z,78.55
2023-01-08T19:07:02.042Z,78.26
2023-01-08T19:09:31.643Z,78.00
2023-01-08T19:12:03.840Z,78.20
2023-01-08T19:14:33.644Z,78.14
2023-01-08T19:17:03.292Z,78.17
2023-01-08T19:19:32.901Z,77.86
2023-01-08T19:22:02.522Z,77.87
2023-01-08T19:24:32.162Z,77.91
2023-01-08T19:27:04.384Z,77.79
2023-01-08T19:29:33.957Z,77.56
2023-01-08T19:32:03.596Z,77.52
2023-01-08T19:34:33.637Z,77.55
2023-01-08T19:37:03.280Z,77.38
2023-01-08T19:39:33.003Z,77.19
2023-01-08T19:42:17.678Z,77.37
2023-01-08T19:44:47.762Z,77.53
2023-01-08T19:47:17.395Z,77.28
2023-01-08T19:49:49.026Z,77.36
2023-01-08T19:52:19.872Z,77.43
2023-01-08T19:54:49.717Z,77.63
2023-01-08T19:57:21.931Z,77.51
2023-01-08T19:59:51.723Z,77.83
2023-01-08T20:02:21.873Z,78.07
2023-01-08T20:04:51.930Z,78.29
2023-01-08T20:07:21.671Z,78.53
2023-01-08T20:09:51.255Z,78.82
2023-01-08T20:12:23.485Z,79.16
2023-01-08T20:14:53.102Z,79.44
2023-01-08T20:17:25.260Z,79.57
2023-01-08T20:19:55.363Z,79.90
2023-01-08T20:22:25.310Z,80.06
2023-01-08T20:24:56.979Z,80.27
2023-01-08T20:27:29.869Z,80.46
2023-01-08T20:30:00.848Z,80.66
2023-01-08T20:32:30.623Z,80.80
2023-01-08T20:35:00.336Z,80.66
2023-01-08T20:37:30.007Z,80.63
2023-01-08T20:39:59.590Z,80.52
2023-01-08T20:42:34.147Z,80.38
2023-01-08T20:45:04.437Z,80.21
2023-01-08T20:47:34.591Z,80.02
2023-01-08T20:50:12.345Z,79.93
2023-01-08T20:52:48.471Z,79.77
2023-01-08T20:55:18.745Z,79.80
2023-01-08T20:57:51.029Z,79.70
2023-01-08T21:00:22.143Z,79.75
2023-01-08T21:02:51.853Z,79.79
2023-01-08T21:05:21.499Z,79.61
2023-01-08T21:07:51.274Z,79.48
2023-01-08T21:10:21.182Z,79.51
2023-01-08T21:12:53.739Z,79.54
2023-01-08T21:15:24.271Z,79.48
2023-01-08T21:17:54.383Z,79.34
2023-01-08T21:20:24.122Z,79.21
2023-01-08T21:22:54.053Z,79.34
2023-01-08T21:25:23.664Z,79.18
2023-01-08T21:27:55.879Z,79.07
2023-01-08T21:30:25.439Z,78.97
2023-01-08T21:32:56.319Z,78.93
2023-01-08T21:35:26.720Z,78.99
2023-01-08T21:37:56.335Z,78.96
2023-01-08T21:40:25.966Z,78.96
2023-01-08T21:43:10.664Z,78.92
2023-01-08T21:45:40.318Z,78.83
2023-01-08T21:48:09.980Z,78.95
2023-01-08T21:50:39.646Z,78.92
2023-01-08T21:53:21.703Z,79.21
2023-01-08T21:55:51.860Z,79.12
2023-01-08T21:58:24.475Z,79.22
2023-01-08T22:00:54.144Z,79.25
2023-01-08T22:03:24.881Z,79.28
2023-01-08T22:06:01.737Z,79.59
2023-01-08T22:08:32.154Z,79.48
2023-01-08T22:11:02.119Z,79.66
2023-01-08T22:13:34.334Z,79.76
2023-01-08T22:16:05.272Z,79.59
2023-01-08T22:18:34.967Z,79.75
2023-01-08T22:21:05.161Z,79.85
2023-01-08T22:23:34.834Z,79.69
2023-01-08T22:26:07.103Z,79.84
2023-01-08T22:28:39.522Z,80.14
2023-01-08T22:31:10.623Z,80.37
2023-01-08T22:33:40.918Z,80.91
2023-01-08T22:36:13.637Z,81.58
2023-01-08T22:38:43.320Z,82.15
2023-01-08T22:41:18.681Z,82.94
2023-01-08T22:43:51.066Z,83.89
2023-01-08T22:46:20.678Z,84.51
2023-01-08T22:48:50.277Z,85.15
2023-01-08T22:51:19.899Z,85.86
2023-01-08T22:53:49.548Z,86.51
2023-01-08T22:56:19.246Z,86.94
2023-01-08T22:58:51.617Z,87.60
2023-01-08T23:01:23.907Z,88.13
2023-01-08T23:03:54.100Z,88.50
2023-01-08T23:06:25.991Z,88.89
2023-01-08T23:08:55.785Z,89.11
2023-01-08T23:11:26.591Z,89.55
2023-01-08T23:13:59.079Z,89.92
2023-01-08T23:16:28.772Z,90.18
2023-01-08T23:18:59.260Z,90.67
2023-01-08T23:21:29.458Z,90.93
2023-01-08T23:23:59.276Z,91.13
2023-01-08T23:26:31.387Z,91.29
2023-01-08T23:29:03.587Z,91.67
2023-01-08T23:31:37.592Z,91.82
2023-01-08T23:34:07.346Z,91.83
2023-01-08T23:36:37.263Z,91.94
2023-01-08T23:39:07.385Z,92.06
2023-01-08T23:41:36.952Z,92.42
2023-01-08T23:44:10.555Z,92.59
2023-01-08T23:46:40.179Z,92.78
2023-01-08T23:49:10.092Z,93.18
2023-01-08T23:51:42.268Z,93.20
2023-01-08T23:54:12.501Z,93.66
2023-01-08T23:56:43.953Z,93.96
2023-01-08T23:59:16.316Z,94.29
